sensor_id;sensor_type;location;lat;lon;timestamp;P1;durP1;ratioP1;P2;durP2;ratioP2
84577;SDS011;74803;44.756;19.218;2023-12-20T00:01:22;248.35;;;134.95;;
84577;SDS011;74803;44.756;19.218;2023-12-20T00:03:48;238.82;;;126.68;;
84577;SDS011;74803;44.756;19.218;2023-12-20T00:06:13;229.05;;;125.50;;
84577;SDS011;74803;44.756;19.218;2023-12-20T00:08:39;233.73;;;118.20;;
84577;SDS011;74803;44.756;19.218;2023-12-20T00:11:05;235.45;;;127.75;;
84577;SDS011;74803;44.756;19.218;2023-12-20T00:13:30;224.10;;;123.38;;
84577;SDS011;74803;44.756;19.218;2023-12-20T00:15:56;242.02;;;132.32;;
84577;SDS011;74803;44.756;19.218;2023-12-20T00:18:22;244.68;;;135.82;;
84577;SDS011;74803;44.756;19.218;2023-12-20T00:20:47;264.52;;;145.57;;
84577;SDS011;74803;44.756;19.218;2023-12-20T00:23:13;273.33;;;154.95;;
84577;SDS011;74803;44.756;19.218;2023-12-20T00:25:38;316.05;;;169.52;;
84577;SDS011;74803;44.756;19.218;2023-12-20T00:28:04;253.77;;;144.38;;
84577;SDS011;74803;44.756;19.218;2023-12-20T00:32:56;251.65;;;131.95;;
84577;SDS011;74803;44.756;19.218;2023-12-20T00:35:22;273.73;;;141.02;;
84577;SDS011;74803;44.756;19.218;2023-12-20T00:37:47;265.30;;;142.15;;
84577;SDS011;74803;44.756;19.218;2023-12-20T00:40:13;263.65;;;151.57;;
84577;SDS011;74803;44.756;19.218;2023-12-20T00:46:00;260.60;;;132.10;;
84577;SDS011;74803;44.756;19.218;2023-12-20T00:48:26;213.82;;;121.68;;
84577;SDS011;74803;44.756;19.218;2023-12-20T00:50:56;221.52;;;124.45;;
84577;SDS011;74803;44.756;19.218;2023-12-20T00:53:22;210.52;;;110.63;;
84577;SDS011;74803;44.756;19.218;2023-12-20T00:55:48;246.57;;;130.02;;
84577;SDS011;74803;44.756;19.218;2023-12-20T00:58:15;237.50;;;126.15;;
84577;SDS011;74803;44.756;19.218;2023-12-20T01:00:41;231.65;;;132.82;;
84577;SDS011;74803;44.756;19.218;2023-12-20T01:03:08;229.77;;;127.53;;
84577;SDS011;74803;44.756;19.218;2023-12-20T01:05:33;275.42;;;134.55;;
84577;SDS011;74803;44.756;19.218;2023-12-20T01:08:00;263.90;;;143.93;;
84577;SDS011;74803;44.756;19.218;2023-12-20T01:10:28;233.95;;;128.77;;
84577;SDS011;74803;44.756;19.218;2023-12-20T01:15:21;203.68;;;105.72;;
84577;SDS011;74803;44.756;19.218;2023-12-20T01:17:46;214.93;;;119.32;;
84577;SDS011;74803;44.756;19.218;2023-12-20T01:20:13;192.07;;;102.25;;
84577;SDS011;74803;44.756;19.218;2023-12-20T01:22:39;175.50;;;93.43;;
84577;SDS011;74803;44.756;19.218;2023-12-20T01:25:05;180.13;;;102.07;;
84577;SDS011;74803;44.756;19.218;2023-12-20T01:27:31;194.48;;;100.53;;
84577;SDS011;74803;44.756;19.218;2023-12-20T01:29:57;186.73;;;108.78;;
84577;SDS011;74803;44.756;19.218;2023-12-20T01:32:23;182.90;;;96.60;;
84577;SDS011;74803;44.756;19.218;2023-12-20T01:34:48;190.30;;;99.95;;
84577;SDS011;74803;44.756;19.218;2023-12-20T01:37:14;172.50;;;97.50;;
84577;SDS011;74803;44.756;19.218;2023-12-20T01:39:40;166.88;;;95.20;;
84577;SDS011;74803;44.756;19.218;2023-12-20T01:42:05;182.60;;;105.90;;
84577;SDS011;74803;44.756;19.218;2023-12-20T01:44:31;169.40;;;99.97;;
84577;SDS011;74803;44.756;19.218;2023-12-20T01:46:56;193.70;;;101.83;;
84577;SDS011;74803;44.756;19.218;2023-12-20T01:49:22;162.68;;;91.22;;
84577;SDS011;74803;44.756;19.218;2023-12-20T01:51:49;161.43;;;92.50;;
84577;SDS011;74803;44.756;19.218;2023-12-20T01:54:15;158.43;;;93.03;;
84577;SDS011;74803;44.756;19.218;2023-12-20T01:56:41;157.60;;;90.53;;
84577;SDS011;74803;44.756;19.218;2023-12-20T01:59:07;193.25;;;102.63;;
84577;SDS011;74803;44.756;19.218;2023-12-20T02:03:59;191.15;;;96.30;;
84577;SDS011;74803;44.756;19.218;2023-12-20T02:06:25;167.57;;;92.50;;
84577;SDS011;74803;44.756;19.218;2023-12-20T02:08:55;161.18;;;93.53;;
84577;SDS011;74803;44.756;19.218;2023-12-20T02:11:22;181.35;;;98.43;;
84577;SDS011;74803;44.756;19.218;2023-12-20T02:13:48;158.48;;;87.00;;
84577;SDS011;74803;44.756;19.218;2023-12-20T02:16:13;159.25;;;87.50;;
84577;SDS011;74803;44.756;19.218;2023-12-20T02:18:39;161.93;;;97.13;;
84577;SDS011;74803;44.756;19.218;2023-12-20T02:21:05;176.18;;;98.65;;
84577;SDS011;74803;44.756;19.218;2023-12-20T02:23:31;171.43;;;93.53;;
84577;SDS011;74803;44.756;19.218;2023-12-20T02:25:56;182.85;;;98.85;;
84577;SDS011;74803;44.756;19.218;2023-12-20T02:28:22;168.82;;;91.85;;
84577;SDS011;74803;44.756;19.218;2023-12-20T02:30:48;176.50;;;104.00;;
84577;SDS011;74803;44.756;19.218;2023-12-20T02:33:14;185.55;;;101.38;;
84577;SDS011;74803;44.756;19.218;2023-12-20T02:35:41;201.57;;;109.05;;
84577;SDS011;74803;44.756;19.218;2023-12-20T02:38:06;182.88;;;96.82;;
84577;SDS011;74803;44.756;19.218;2023-12-20T02:40:32;199.65;;;108.90;;
84577;SDS011;74803;44.756;19.218;2023-12-20T02:42:58;179.75;;;105.85;;
84577;SDS011;74803;44.756;19.218;2023-12-20T02:45:23;202.38;;;106.80;;
84577;SDS011;74803;44.756;19.218;2023-12-20T02:47:49;183.40;;;101.38;;
84577;SDS011;74803;44.756;19.218;2023-12-20T02:50:15;184.13;;;100.82;;
84577;SDS011;74803;44.756;19.218;2023-12-20T02:52:40;183.35;;;101.30;;
84577;SDS011;74803;44.756;19.218;2023-12-20T02:55:06;173.93;;;93.40;;
84577;SDS011;74803;44.756;19.218;2023-12-20T02:57:31;164.02;;;92.43;;
84577;SDS011;74803;44.756;19.218;2023-12-20T02:59:58;149.45;;;88.07;;
84577;SDS011;74803;44.756;19.218;2023-12-20T03:02:24;167.57;;;99.13;;
84577;SDS011;74803;44.756;19.218;2023-12-20T03:04:49;173.87;;;103.23;;
84577;SDS011;74803;44.756;19.218;2023-12-20T03:07:15;183.95;;;99.90;;
84577;SDS011;74803;44.756;19.218;2023-12-20T03:09:41;166.07;;;86.82;;
84577;SDS011;74803;44.756;19.218;2023-12-20T03:12:06;181.20;;;92.47;;
84577;SDS011;74803;44.756;19.218;2023-12-20T03:14:32;166.85;;;94.30;;
84577;SDS011;74803;44.756;19.218;2023-12-20T03:16:57;210.35;;;106.32;;
84577;SDS011;74803;44.756;19.218;2023-12-20T03:19:23;222.83;;;119.87;;
84577;SDS011;74803;44.756;19.218;2023-12-20T03:21:49;193.57;;;102.97;;
84577;SDS011;74803;44.756;19.218;2023-12-20T03:24:14;145.47;;;80.57;;
84577;SDS011;74803;44.756;19.218;2023-12-20T03:26:40;129.52;;;78.45;;
84577;SDS011;74803;44.756;19.218;2023-12-20T03:29:05;138.45;;;69.47;;
84577;SDS011;74803;44.756;19.218;2023-12-20T03:31:31;130.13;;;71.93;;
84577;SDS011;74803;44.756;19.218;2023-12-20T03:33:57;145.90;;;75.30;;
84577;SDS011;74803;44.756;19.218;2023-12-20T03:36:22;119.82;;;65.47;;
84577;SDS011;74803;44.756;19.218;2023-12-20T03:38:48;142.45;;;72.00;;
84577;SDS011;74803;44.756;19.218;2023-12-20T03:41:13;110.97;;;67.00;;
84577;SDS011;74803;44.756;19.218;2023-12-20T03:43:40;112.72;;;58.15;;
84577;SDS011;74803;44.756;19.218;2023-12-20T03:46:07;114.55;;;65.70;;
84577;SDS011;74803;44.756;19.218;2023-12-20T03:48:33;108.70;;;59.28;;
84577;SDS011;74803;44.756;19.218;2023-12-20T03:50:59;100.00;;;57.95;;
84577;SDS011;74803;44.756;19.218;2023-12-20T03:53:24;86.30;;;48.72;;
84577;SDS011;74803;44.756;19.218;2023-12-20T03:55:50;120.38;;;62.88;;
84577;SDS011;74803;44.756;19.218;2023-12-20T03:58:15;102.70;;;61.00;;
84577;SDS011;74803;44.756;19.218;2023-12-20T04:00:41;98.93;;;55.22;;
84577;SDS011;74803;44.756;19.218;2023-12-20T04:03:06;110.15;;;60.80;;
84577;SDS011;74803;44.756;19.218;2023-12-20T04:05:32;106.80;;;55.65;;
84577;SDS011;74803;44.756;19.218;2023-12-20T04:07:59;98.70;;;52.87;;
84577;SDS011;74803;44.756;19.218;2023-12-20T04:10:26;91.45;;;50.50;;
84577;SDS011;74803;44.756;19.218;2023-12-20T04:12:52;89.82;;;55.28;;
84577;SDS011;74803;44.756;19.218;2023-12-20T04:15:18;143.68;;;82.53;;
84577;SDS011;74803;44.756;19.218;2023-12-20T04:17:44;105.53;;;67.03;;
84577;SDS011;74803;44.756;19.218;2023-12-20T04:20:10;120.88;;;65.32;;
84577;SDS011;74803;44.756;19.218;2023-12-20T04:22:36;115.38;;;71.60;;
84577;SDS011;74803;44.756;19.218;2023-12-20T04:25:01;114.47;;;65.15;;
84577;SDS011;74803;44.756;19.218;2023-12-20T04:27:27;113.37;;;59.23;;
84577;SDS011;74803;44.756;19.218;2023-12-20T04:29:53;99.30;;;54.95;;
84577;SDS011;74803;44.756;19.218;2023-12-20T04:32:18;87.35;;;53.22;;
84577;SDS011;74803;44.756;19.218;2023-12-20T04:34:44;103.05;;;57.22;;
84577;SDS011;74803;44.756;19.218;2023-12-20T04:37:10;97.33;;;58.17;;
84577;SDS011;74803;44.756;19.218;2023-12-20T04:39:35;93.03;;;54.38;;
84577;SDS011;74803;44.756;19.218;2023-12-20T04:42:01;103.72;;;54.45;;
84577;SDS011;74803;44.756;19.218;2023-12-20T04:44:26;99.15;;;54.15;;
84577;SDS011;74803;44.756;19.218;2023-12-20T04:46:52;106.97;;;59.00;;
84577;SDS011;74803;44.756;19.218;2023-12-20T04:49:18;112.63;;;57.38;;
84577;SDS011;74803;44.756;19.218;2023-12-20T04:51:43;99.87;;;57.50;;
84577;SDS011;74803;44.756;19.218;2023-12-20T04:54:09;284.80;;;139.00;;
84577;SDS011;74803;44.756;19.218;2023-12-20T04:56:35;235.05;;;125.32;;
84577;SDS011;74803;44.756;19.218;2023-12-20T04:59:01;114.28;;;62.10;;
84577;SDS011;74803;44.756;19.218;2023-12-20T05:01:28;141.10;;;73.78;;
84577;SDS011;74803;44.756;19.218;2023-12-20T05:03:53;94.95;;;53.30;;
84577;SDS011;74803;44.756;19.218;2023-12-20T05:06:19;156.85;;;75.43;;
84577;SDS011;74803;44.756;19.218;2023-12-20T05:08:44;164.68;;;81.32;;
84577;SDS011;74803;44.756;19.218;2023-12-20T05:11:10;137.32;;;66.22;;
84577;SDS011;74803;44.756;19.218;2023-12-20T05:13:35;90.50;;;54.55;;
84577;SDS011;74803;44.756;19.218;2023-12-20T05:16:01;81.90;;;47.00;;
84577;SDS011;74803;44.756;19.218;2023-12-20T05:18:27;101.10;;;51.50;;
84577;SDS011;74803;44.756;19.218;2023-12-20T05:20:52;78.93;;;48.53;;
84577;SDS011;74803;44.756;19.218;2023-12-20T05:23:18;91.63;;;48.60;;
84577;SDS011;74803;44.756;19.218;2023-12-20T05:25:45;78.95;;;50.75;;
84577;SDS011;74803;44.756;19.218;2023-12-20T05:28:11;97.07;;;52.20;;
84577;SDS011;74803;44.756;19.218;2023-12-20T05:30:36;110.33;;;61.27;;
84577;SDS011;74803;44.756;19.218;2023-12-20T05:33:02;113.22;;;56.80;;
84577;SDS011;74803;44.756;19.218;2023-12-20T05:35:27;82.95;;;50.05;;
84577;SDS011;74803;44.756;19.218;2023-12-20T05:37:53;69.85;;;41.53;;
84577;SDS011;74803;44.756;19.218;2023-12-20T05:40:19;129.10;;;67.40;;
84577;SDS011;74803;44.756;19.218;2023-12-20T05:42:44;107.72;;;61.13;;
84577;SDS011;74803;44.756;19.218;2023-12-20T05:45:10;125.10;;;69.57;;
84577;SDS011;74803;44.756;19.218;2023-12-20T05:47:36;113.28;;;63.78;;
84577;SDS011;74803;44.756;19.218;2023-12-20T05:50:01;114.87;;;62.47;;
84577;SDS011;74803;44.756;19.218;2023-12-20T05:52:27;132.93;;;67.78;;
84577;SDS011;74803;44.756;19.218;2023-12-20T05:54:53;109.40;;;58.22;;
84577;SDS011;74803;44.756;19.218;2023-12-20T05:57:18;138.02;;;76.10;;
84577;SDS011;74803;44.756;19.218;2023-12-20T05:59:44;125.57;;;70.47;;
84577;SDS011;74803;44.756;19.218;2023-12-20T06:02:10;101.88;;;54.78;;
84577;SDS011;74803;44.756;19.218;2023-12-20T06:04:35;96.70;;;48.40;;
84577;SDS011;74803;44.756;19.218;2023-12-20T06:07:01;89.60;;;50.72;;
84577;SDS011;74803;44.756;19.218;2023-12-20T06:09:28;72.40;;;39.15;;
84577;SDS011;74803;44.756;19.218;2023-12-20T06:11:54;82.88;;;43.63;;
84577;SDS011;74803;44.756;19.218;2023-12-20T06:14:19;76.32;;;51.95;;
84577;SDS011;74803;44.756;19.218;2023-12-20T06:16:45;68.43;;;47.92;;
84577;SDS011;74803;44.756;19.218;2023-12-20T06:19:11;83.47;;;47.75;;
84577;SDS011;74803;44.756;19.218;2023-12-20T06:21:37;91.80;;;56.70;;
84577;SDS011;74803;44.756;19.218;2023-12-20T06:24:02;97.00;;;56.75;;
84577;SDS011;74803;44.756;19.218;2023-12-20T06:26:28;89.38;;;52.33;;
84577;SDS011;74803;44.756;19.218;2023-12-20T06:28:54;101.57;;;60.33;;
84577;SDS011;74803;44.756;19.218;2023-12-20T06:31:20;105.93;;;63.47;;
84577;SDS011;74803;44.756;19.218;2023-12-20T06:33:46;115.65;;;71.50;;
84577;SDS011;74803;44.756;19.218;2023-12-20T06:36:12;112.70;;;62.17;;
84577;SDS011;74803;44.756;19.218;2023-12-20T06:38:38;138.70;;;79.13;;
84577;SDS011;74803;44.756;19.218;2023-12-20T06:43:31;131.05;;;77.50;;
84577;SDS011;74803;44.756;19.218;2023-12-20T06:48:23;108.25;;;60.65;;
84577;SDS011;74803;44.756;19.218;2023-12-20T06:50:48;110.13;;;66.95;;
84577;SDS011;74803;44.756;19.218;2023-12-20T06:53:14;118.43;;;62.75;;
84577;SDS011;74803;44.756;19.218;2023-12-20T06:55:39;129.50;;;69.03;;
84577;SDS011;74803;44.756;19.218;2023-12-20T06:58:05;114.68;;;63.38;;
84577;SDS011;74803;44.756;19.218;2023-12-20T07:00:32;90.05;;;49.05;;
84577;SDS011;74803;44.756;19.218;2023-12-20T07:02:58;81.70;;;53.70;;
84577;SDS011;74803;44.756;19.218;2023-12-20T07:05:24;118.32;;;72.55;;
84577;SDS011;74803;44.756;19.218;2023-12-20T07:07:49;93.82;;;53.53;;
84577;SDS011;74803;44.756;19.218;2023-12-20T07:10:15;92.47;;;57.85;;
84577;SDS011;74803;44.756;19.218;2023-12-20T07:12:41;100.60;;;62.28;;
84577;SDS011;74803;44.756;19.218;2023-12-20T07:15:07;107.18;;;67.20;;
84577;SDS011;74803;44.756;19.218;2023-12-20T07:17:33;129.02;;;72.18;;
84577;SDS011;74803;44.756;19.218;2023-12-20T07:19:59;137.32;;;80.03;;
84577;SDS011;74803;44.756;19.218;2023-12-20T07:22:29;128.23;;;71.05;;
84577;SDS011;74803;44.756;19.218;2023-12-20T07:24:59;240.30;;;131.68;;
84577;SDS011;74803;44.756;19.218;2023-12-20T07:27:25;265.83;;;158.73;;
84577;SDS011;74803;44.756;19.218;2023-12-20T07:32:18;369.55;;;208.80;;
84577;SDS011;74803;44.756;19.218;2023-12-20T07:34:44;323.63;;;184.82;;
84577;SDS011;74803;44.756;19.218;2023-12-20T07:37:10;335.13;;;185.75;;
84577;SDS011;74803;44.756;19.218;2023-12-20T07:39:40;301.60;;;168.95;;
84577;SDS011;74803;44.756;19.218;2023-12-20T07:42:06;284.05;;;158.15;;
84577;SDS011;74803;44.756;19.218;2023-12-20T07:44:32;297.23;;;178.52;;
84577;SDS011;74803;44.756;19.218;2023-12-20T07:46:58;283.00;;;154.93;;
84577;SDS011;74803;44.756;19.218;2023-12-20T07:49:24;273.42;;;157.65;;
84577;SDS011;74803;44.756;19.218;2023-12-20T07:51:49;280.65;;;154.63;;
84577;SDS011;74803;44.756;19.218;2023-12-20T07:54:15;247.90;;;149.02;;
84577;SDS011;74803;44.756;19.218;2023-12-20T07:56:43;228.95;;;138.88;;
84577;SDS011;74803;44.756;19.218;2023-12-20T07:59:09;263.27;;;152.68;;
84577;SDS011;74803;44.756;19.218;2023-12-20T08:01:34;245.77;;;142.80;;
84577;SDS011;74803;44.756;19.218;2023-12-20T08:04:00;246.32;;;147.23;;
84577;SDS011;74803;44.756;19.218;2023-12-20T08:06:25;244.07;;;135.27;;
84577;SDS011;74803;44.756;19.218;2023-12-20T08:08:51;222.75;;;129.93;;
84577;SDS011;74803;44.756;19.218;2023-12-20T08:11:18;234.05;;;136.48;;
84577;SDS011;74803;44.756;19.218;2023-12-20T08:13:44;265.20;;;153.15;;
84577;SDS011;74803;44.756;19.218;2023-12-20T08:16:10;226.43;;;132.18;;
84577;SDS011;74803;44.756;19.218;2023-12-20T08:18:38;243.10;;;140.43;;
84577;SDS011;74803;44.756;19.218;2023-12-20T08:21:04;219.75;;;130.65;;
84577;SDS011;74803;44.756;19.218;2023-12-20T08:23:35;222.07;;;137.63;;
84577;SDS011;74803;44.756;19.218;2023-12-20T08:26:05;226.95;;;134.48;;
84577;SDS011;74803;44.756;19.218;2023-12-20T08:28:31;246.00;;;143.27;;
84577;SDS011;74803;44.756;19.218;2023-12-20T08:30:58;253.18;;;154.65;;
84577;SDS011;74803;44.756;19.218;2023-12-20T08:33:25;267.67;;;153.98;;
84577;SDS011;74803;44.756;19.218;2023-12-20T08:35:50;272.65;;;158.77;;
84577;SDS011;74803;44.756;19.218;2023-12-20T08:38:16;282.38;;;160.23;;
84577;SDS011;74803;44.756;19.218;2023-12-20T08:40:43;260.50;;;154.63;;
84577;SDS011;74803;44.756;19.218;2023-12-20T08:45:41;274.35;;;156.95;;
84577;SDS011;74803;44.756;19.218;2023-12-20T08:48:08;276.05;;;154.00;;
84577;SDS011;74803;44.756;19.218;2023-12-20T08:50:33;270.63;;;158.07;;
84577;SDS011;74803;44.756;19.218;2023-12-20T08:52:59;241.82;;;147.57;;
84577;SDS011;74803;44.756;19.218;2023-12-20T08:55:25;255.47;;;159.00;;
84577;SDS011;74803;44.756;19.218;2023-12-20T08:57:52;247.65;;;143.20;;
84577;SDS011;74803;44.756;19.218;2023-12-20T09:00:17;264.33;;;166.52;;
84577;SDS011;74803;44.756;19.218;2023-12-20T09:02:46;259.63;;;155.30;;
84577;SDS011;74803;44.756;19.218;2023-12-20T09:05:11;253.93;;;153.90;;
84577;SDS011;74803;44.756;19.218;2023-12-20T09:07:37;247.88;;;150.63;;
84577;SDS011;74803;44.756;19.218;2023-12-20T09:10:04;264.25;;;158.82;;
84577;SDS011;74803;44.756;19.218;2023-12-20T09:12:30;246.20;;;156.07;;
84577;SDS011;74803;44.756;19.218;2023-12-20T09:14:56;278.83;;;151.90;;
84577;SDS011;74803;44.756;19.218;2023-12-20T09:17:22;234.15;;;139.30;;
84577;SDS011;74803;44.756;19.218;2023-12-20T09:20:13;182.30;;;110.47;;
84577;SDS011;74803;44.756;19.218;2023-12-20T09:22:43;165.43;;;107.95;;
84577;SDS011;74803;44.756;19.218;2023-12-20T09:25:12;149.50;;;96.10;;
84577;SDS011;74803;44.756;19.218;2023-12-20T09:27:45;140.18;;;92.05;;
84577;SDS011;74803;44.756;19.218;2023-12-20T09:30:11;128.63;;;83.20;;
84577;SDS011;74803;44.756;19.218;2023-12-20T09:32:38;111.00;;;77.85;;
84577;SDS011;74803;44.756;19.218;2023-12-20T09:35:04;106.50;;;71.30;;
84577;SDS011;74803;44.756;19.218;2023-12-20T09:37:31;114.50;;;74.63;;
84577;SDS011;74803;44.756;19.218;2023-12-20T09:39:56;108.70;;;72.80;;
84577;SDS011;74803;44.756;19.218;2023-12-20T09:45:13;116.97;;;79.55;;
84577;SDS011;74803;44.756;19.218;2023-12-20T09:47:43;107.53;;;74.50;;
84577;SDS011;74803;44.756;19.218;2023-12-20T09:50:10;106.28;;;68.20;;
84577;SDS011;74803;44.756;19.218;2023-12-20T09:52:36;91.18;;;63.63;;
84577;SDS011;74803;44.756;19.218;2023-12-20T09:55:04;84.85;;;60.72;;
84577;SDS011;74803;44.756;19.218;2023-12-20T09:57:33;86.07;;;57.80;;
84577;SDS011;74803;44.756;19.218;2023-12-20T10:00:00;90.45;;;62.20;;
84577;SDS011;74803;44.756;19.218;2023-12-20T10:02:26;84.38;;;55.58;;
84577;SDS011;74803;44.756;19.218;2023-12-20T10:07:20;90.07;;;58.58;;
84577;SDS011;74803;44.756;19.218;2023-12-20T10:09:47;80.90;;;54.50;;
84577;SDS011;74803;44.756;19.218;2023-12-20T10:12:21;78.57;;;49.20;;
84577;SDS011;74803;44.756;19.218;2023-12-20T10:14:46;76.80;;;46.23;;
84577;SDS011;74803;44.756;19.218;2023-12-20T10:17:12;64.47;;;45.23;;
84577;SDS011;74803;44.756;19.218;2023-12-20T10:19:38;68.20;;;47.92;;
84577;SDS011;74803;44.756;19.218;2023-12-20T10:22:04;62.90;;;46.17;;
84577;SDS011;74803;44.756;19.218;2023-12-20T10:24:30;71.22;;;47.50;;
84577;SDS011;74803;44.756;19.218;2023-12-20T10:27:08;66.28;;;43.03;;
84577;SDS011;74803;44.756;19.218;2023-12-20T10:29:44;66.30;;;45.95;;
84577;SDS011;74803;44.756;19.218;2023-12-20T10:32:26;70.93;;;47.47;;
84577;SDS011;74803;44.756;19.218;2023-12-20T10:34:56;67.90;;;48.10;;
84577;SDS011;74803;44.756;19.218;2023-12-20T10:37:25;64.30;;;44.83;;
84577;SDS011;74803;44.756;19.218;2023-12-20T10:39:54;69.97;;;45.42;;
84577;SDS011;74803;44.756;19.218;2023-12-20T10:42:26;74.10;;;50.83;;
84577;SDS011;74803;44.756;19.218;2023-12-20T10:44:54;72.95;;;49.65;;
84577;SDS011;74803;44.756;19.218;2023-12-20T10:47:34;69.78;;;46.80;;
84577;SDS011;74803;44.756;19.218;2023-12-20T10:50:02;79.60;;;50.88;;
84577;SDS011;74803;44.756;19.218;2023-12-20T10:52:31;72.85;;;51.30;;
84577;SDS011;74803;44.756;19.218;2023-12-20T10:54:59;76.15;;;47.95;;
84577;SDS011;74803;44.756;19.218;2023-12-20T10:57:26;84.13;;;50.53;;
84577;SDS011;74803;44.756;19.218;2023-12-20T11:00:02;74.93;;;49.53;;
84577;SDS011;74803;44.756;19.218;2023-12-20T11:02:36;77.90;;;52.58;;
84577;SDS011;74803;44.756;19.218;2023-12-20T11:08:10;73.20;;;51.80;;
84577;SDS011;74803;44.756;19.218;2023-12-20T11:10:47;62.50;;;44.65;;
84577;SDS011;74803;44.756;19.218;2023-12-20T11:13:54;58.80;;;42.80;;
84577;SDS011;74803;44.756;19.218;2023-12-20T11:16:26;66.38;;;43.67;;
84577;SDS011;74803;44.756;19.218;2023-12-20T11:18:53;76.07;;;50.20;;
84577;SDS011;74803;44.756;19.218;2023-12-20T11:21:19;67.30;;;47.93;;
84577;SDS011;74803;44.756;19.218;2023-12-20T11:23:45;68.40;;;44.13;;
84577;SDS011;74803;44.756;19.218;2023-12-20T11:26:11;77.70;;;51.65;;
84577;SDS011;74803;44.756;19.218;2023-12-20T11:28:41;69.47;;;47.10;;
84577;SDS011;74803;44.756;19.218;2023-12-20T11:31:07;73.30;;;46.42;;
84577;SDS011;74803;44.756;19.218;2023-12-20T11:33:36;65.35;;;42.65;;
84577;SDS011;74803;44.756;19.218;2023-12-20T11:36:03;49.40;;;37.13;;
84577;SDS011;74803;44.756;19.218;2023-12-20T11:41:27;70.32;;;42.30;;
84577;SDS011;74803;44.756;19.218;2023-12-20T11:43:58;65.83;;;42.30;;
84577;SDS011;74803;44.756;19.218;2023-12-20T11:46:29;52.97;;;35.95;;
84577;SDS011;74803;44.756;19.218;2023-12-20T11:49:01;56.33;;;36.70;;
84577;SDS011;74803;44.756;19.218;2023-12-20T11:51:30;58.08;;;36.78;;
84577;SDS011;74803;44.756;19.218;2023-12-20T11:53:55;56.47;;;40.53;;
84577;SDS011;74803;44.756;19.218;2023-12-20T11:56:21;51.63;;;39.13;;
84577;SDS011;74803;44.756;19.218;2023-12-20T11:58:48;59.38;;;40.75;;
84577;SDS011;74803;44.756;19.218;2023-12-20T12:01:20;59.22;;;41.38;;
84577;SDS011;74803;44.756;19.218;2023-12-20T12:03:47;56.67;;;41.58;;
84577;SDS011;74803;44.756;19.218;2023-12-20T12:08:39;80.03;;;48.60;;
84577;SDS011;74803;44.756;19.218;2023-12-20T12:11:04;88.38;;;54.00;;
84577;SDS011;74803;44.756;19.218;2023-12-20T12:13:30;87.20;;;55.47;;
84577;SDS011;74803;44.756;19.218;2023-12-20T12:15:56;77.70;;;53.70;;
84577;SDS011;74803;44.756;19.218;2023-12-20T12:18:38;104.53;;;63.28;;
84577;SDS011;74803;44.756;19.218;2023-12-20T12:21:04;96.83;;;60.73;;
84577;SDS011;74803;44.756;19.218;2023-12-20T12:23:29;95.68;;;58.35;;
84577;SDS011;74803;44.756;19.218;2023-12-20T12:25:56;85.50;;;56.50;;
84577;SDS011;74803;44.756;19.218;2023-12-20T12:28:25;77.13;;;55.80;;
84577;SDS011;74803;44.756;19.218;2023-12-20T12:30:59;86.85;;;56.58;;
84577;SDS011;74803;44.756;19.218;2023-12-20T12:33:25;75.50;;;56.03;;
84577;SDS011;74803;44.756;19.218;2023-12-20T12:35:51;83.07;;;60.15;;
84577;SDS011;74803;44.756;19.218;2023-12-20T12:38:20;76.88;;;50.13;;
84577;SDS011;74803;44.756;19.218;2023-12-20T12:40:46;68.07;;;51.53;;
84577;SDS011;74803;44.756;19.218;2023-12-20T12:43:14;81.05;;;52.90;;
84577;SDS011;74803;44.756;19.218;2023-12-20T12:45:40;77.50;;;52.20;;
84577;SDS011;74803;44.756;19.218;2023-12-20T12:48:06;83.95;;;60.53;;
84577;SDS011;74803;44.756;19.218;2023-12-20T12:50:32;89.97;;;59.58;;
84577;SDS011;74803;44.756;19.218;2023-12-20T12:52:58;77.30;;;52.35;;
84577;SDS011;74803;44.756;19.218;2023-12-20T12:55:24;86.40;;;60.13;;
84577;SDS011;74803;44.756;19.218;2023-12-20T12:57:55;93.80;;;56.80;;
84577;SDS011;74803;44.756;19.218;2023-12-20T13:00:28;90.95;;;60.47;;
84577;SDS011;74803;44.756;19.218;2023-12-20T13:02:53;107.03;;;71.90;;
84577;SDS011;74803;44.756;19.218;2023-12-20T13:05:20;98.57;;;67.97;;
84577;SDS011;74803;44.756;19.218;2023-12-20T13:07:46;111.70;;;72.10;;
84577;SDS011;74803;44.756;19.218;2023-12-20T13:10:13;103.47;;;65.88;;
84577;SDS011;74803;44.756;19.218;2023-12-20T13:12:41;97.10;;;64.63;;
84577;SDS011;74803;44.756;19.218;2023-12-20T13:15:10;109.18;;;66.50;;
84577;SDS011;74803;44.756;19.218;2023-12-20T13:17:36;100.63;;;65.23;;
84577;SDS011;74803;44.756;19.218;2023-12-20T13:20:02;98.97;;;71.22;;
84577;SDS011;74803;44.756;19.218;2023-12-20T13:22:28;104.18;;;68.38;;
84577;SDS011;74803;44.756;19.218;2023-12-20T13:24:54;95.97;;;64.40;;
84577;SDS011;74803;44.756;19.218;2023-12-20T13:27:23;111.30;;;70.35;;
84577;SDS011;74803;44.756;19.218;2023-12-20T13:29:49;108.53;;;68.50;;
84577;SDS011;74803;44.756;19.218;2023-12-20T13:32:15;107.97;;;66.83;;
84577;SDS011;74803;44.756;19.218;2023-12-20T13:34:40;105.57;;;67.82;;
84577;SDS011;74803;44.756;19.218;2023-12-20T13:37:06;105.33;;;70.67;;
84577;SDS011;74803;44.756;19.218;2023-12-20T13:39:32;94.20;;;61.55;;
84577;SDS011;74803;44.756;19.218;2023-12-20T13:41:58;87.72;;;60.90;;
84577;SDS011;74803;44.756;19.218;2023-12-20T13:44:23;94.13;;;62.95;;
84577;SDS011;74803;44.756;19.218;2023-12-20T13:46:49;91.95;;;60.78;;
84577;SDS011;74803;44.756;19.218;2023-12-20T13:49:15;78.50;;;53.22;;
84577;SDS011;74803;44.756;19.218;2023-12-20T13:51:41;81.80;;;58.50;;
84577;SDS011;74803;44.756;19.218;2023-12-20T13:54:07;62.55;;;49.92;;
84577;SDS011;74803;44.756;19.218;2023-12-20T13:56:34;71.93;;;50.70;;
84577;SDS011;74803;44.756;19.218;2023-12-20T14:01:25;74.57;;;52.47;;
84577;SDS011;74803;44.756;19.218;2023-12-20T14:03:52;73.20;;;49.58;;
84577;SDS011;74803;44.756;19.218;2023-12-20T14:06:17;75.03;;;49.13;;
84577;SDS011;74803;44.756;19.218;2023-12-20T14:08:45;78.20;;;53.72;;
84577;SDS011;74803;44.756;19.218;2023-12-20T14:11:10;73.63;;;55.05;;
84577;SDS011;74803;44.756;19.218;2023-12-20T14:13:36;85.63;;;57.65;;
84577;SDS011;74803;44.756;19.218;2023-12-20T14:16:02;90.00;;;63.77;;
84577;SDS011;74803;44.756;19.218;2023-12-20T14:18:29;76.43;;;52.35;;
84577;SDS011;74803;44.756;19.218;2023-12-20T14:20:55;80.82;;;55.25;;
84577;SDS011;74803;44.756;19.218;2023-12-20T14:23:22;67.00;;;48.92;;
84577;SDS011;74803;44.756;19.218;2023-12-20T14:25:49;64.03;;;46.90;;
84577;SDS011;74803;44.756;19.218;2023-12-20T14:28:15;71.07;;;51.08;;
84577;SDS011;74803;44.756;19.218;2023-12-20T14:30:41;67.03;;;47.42;;
84577;SDS011;74803;44.756;19.218;2023-12-20T14:33:07;76.28;;;48.67;;